Terminal Aerodrome Forecast
Issued by NWS Greer, SC

Home | Current Version | Previous Version | Text Only | Print | Product List | Glossary On
Versions: 1 2 3 4 5 6 7 8 9 10 11 12 13 14 15 16 17 18 19 20 21 22 23 24 25 26 27 28 29 30 31 32 33 34 35
000
FTUS42 KGSP 250228 AAB
TAFCLT
TAF AMD
KCLT 250228Z 2502/2606 01003KT P6SM BKN004
      TEMPO 2503/2505 3SM -SHRA BR BKN015
     FM250500 05003KT 3SM BR VCSH OVC010
     FM251400 32004KT P6SM BKN017
     FM251700 32007KT P6SM BKN035
     FM252100 VRB05KT P6SM SCT050=

USA.gov is the U.S. government's official web portal to all federal, state and local government web resources and services.